Time;durP1;ratioP1;P1;durP2;ratioP2;P2;SDS_P1;SDS_P2;PMS_P1;PMS_P2;Temp;Humidity;BMP_temperature;BMP_pressure;BME280_temperature;BME280_humidity;BME280_pressure;Samples;Min_cycle;Max_cycle;Signal;HPM_P1;HPM_P2
2022/04/05 00:01:35;;;;;;;6.22;1.70;;;1.60;99.90;;;;;;5001952;28;20141;-68
2022/04/05 00:04:02;;;;;;;7.13;0.40;;;1.60;99.90;;;;;;5003585;28;20108;-65
2022/04/05 00:06:29;;;;;;;3.47;0.50;;;1.60;99.90;;;;;;5001921;28;20673;-64
2022/04/05 00:08:56;;;;;;;3.90;0.65;;;1.50;99.90;;;;;;5004818;28;20074;-66
2022/04/05 00:11:23;;;;;;;1.63;0.50;;;1.60;99.90;;;;;;4990152;28;20096;-64
2022/04/05 00:13:50;;;;;;;2.30;0.35;;;1.50;99.90;;;;;;5001592;28;20049;-65
2022/04/05 00:16:16;;;;;;;3.30;0.70;;;1.50;99.90;;;;;;5004362;28;20129;-66
2022/04/05 00:18:43;;;;;;;0.85;0.30;;;1.50;99.90;;;;;;4993045;28;20060;-64
2022/04/05 00:21:10;;;;;;;1.08;0.40;;;1.40;99.90;;;;;;5003379;28;20163;-66
2022/04/05 00:23:37;;;;;;;2.50;0.30;;;1.40;99.90;;;;;;4997898;28;20114;-63
2022/04/05 00:26:04;;;;;;;3.28;0.45;;;1.40;99.90;;;;;;5002627;28;20113;-70
2022/04/05 00:28:31;;;;;;;1.65;0.52;;;1.40;99.90;;;;;;4996511;28;20080;-65
2022/04/05 00:30:58;;;;;;;2.65;0.30;;;1.30;99.90;;;;;;5003362;28;20048;-65
2022/04/05 00:33:25;;;;;;;0.85;0.43;;;1.30;99.90;;;;;;5002562;28;20058;-64
2022/04/05 00:35:52;;;;;;;2.15;0.45;;;1.20;99.90;;;;;;5020423;28;20104;-67
2022/04/05 00:38:19;;;;;;;2.20;0.70;;;1.20;99.90;;;;;;5014983;28;20140;-65
2022/04/05 00:40:46;;;;;;;4.47;0.65;;;1.20;99.90;;;;;;5011136;28;20154;-65
2022/04/05 00:43:13;;;;;;;2.60;0.20;;;1.20;99.90;;;;;;5008445;28;20740;-68
2022/04/05 00:45:40;;;;;;;1.40;0.50;;;1.10;99.90;;;;;;5000247;28;20096;-64
2022/04/05 00:48:07;;;;;;;1.92;0.40;;;1.10;99.90;;;;;;5003350;28;20046;-65
2022/04/05 00:50:37;;;;;;;5.15;0.82;;;1.10;99.90;;;;;;5007084;28;20567;-67
2022/04/05 00:53:06;;;;;;;7.03;0.63;;;1.00;99.90;;;;;;5022579;28;20058;-66
2022/04/05 00:55:35;;;;;;;1.70;0.28;;;1.00;99.90;;;;;;5013616;28;20053;-65
2022/04/05 00:58:03;;;;;;;2.33;0.77;;;1.00;99.90;;;;;;5007638;28;20042;-66
2022/04/05 01:00:31;;;;;;;5.00;0.88;;;0.90;99.90;;;;;;5005330;28;20045;-67
2022/04/05 01:02:58;;;;;;;4.45;1.10;;;0.90;99.90;;;;;;5003641;28;20038;-65
2022/04/05 01:05:28;;;;;;;4.38;0.63;;;0.90;99.90;;;;;;5012909;28;20065;-64
2022/04/05 01:07:59;;;;;;;2.20;0.95;;;0.90;99.90;;;;;;5005408;28;20651;-67
2022/04/05 01:10:29;;;;;;;4.90;0.80;;;0.90;99.90;;;;;;5013697;28;20058;-65
2022/04/05 01:12:56;;;;;;;2.85;0.65;;;0.90;99.90;;;;;;5003983;28;20051;-64
2022/04/05 01:15:24;;;;;;;4.45;0.43;;;0.80;99.90;;;;;;4999722;28;20069;-64
2022/04/05 01:17:53;;;;;;;2.75;0.98;;;0.80;99.90;;;;;;4993694;28;20070;-64
2022/04/05 01:20:20;;;;;;;6.15;0.50;;;0.90;99.90;;;;;;5008177;28;20054;-65
2022/04/05 01:22:51;;;;;;;2.13;0.63;;;0.80;99.90;;;;;;5001439;28;20042;-66
2022/04/05 01:25:19;;;;;;;3.95;1.50;;;0.90;99.90;;;;;;4997843;28;20100;-63
2022/04/05 01:27:47;;;;;;;2.08;0.45;;;0.90;99.90;;;;;;5004376;28;20473;-64
2022/04/05 01:30:14;;;;;;;3.35;0.60;;;0.90;99.90;;;;;;5005409;28;20061;-68
2022/04/05 01:32:41;;;;;;;2.00;0.95;;;0.80;99.90;;;;;;5006680;28;20137;-65
2022/04/05 01:35:10;;;;;;;1.65;0.40;;;0.70;99.90;;;;;;5006253;28;20618;-65
2022/04/05 01:37:37;;;;;;;4.13;0.68;;;0.70;99.90;;;;;;5004942;28;20082;-65
2022/04/05 01:40:04;;;;;;;3.13;0.80;;;0.80;99.90;;;;;;5000759;28;20050;-65
2022/04/05 01:42:33;;;;;;;21.42;1.67;;;0.70;99.90;;;;;;4996385;28;20069;-65
2022/04/05 01:45:02;;;;;;;1.95;0.30;;;0.70;99.90;;;;;;5016181;28;20769;-67
2022/04/05 01:47:29;;;;;;;4.32;1.13;;;0.60;99.90;;;;;;5006206;28;20217;-65
2022/04/05 01:49:57;;;;;;;3.80;0.35;;;0.60;99.90;;;;;;5004570;28;20062;-70
2022/04/05 01:52:24;;;;;;;6.93;2.75;;;0.70;99.90;;;;;;5006959;28;20053;-68
2022/04/05 01:54:51;;;;;;;3.17;0.35;;;0.70;99.90;;;;;;5005882;28;20142;-64
2022/04/05 01:57:18;;;;;;;0.30;0.15;;;0.70;99.90;;;;;;5003347;28;20076;-72
2022/04/05 01:59:45;;;;;;;3.00;0.80;;;0.70;99.90;;;;;;5002796;28;20532;-65
2022/04/05 02:02:12;;;;;;;3.67;0.40;;;0.60;99.90;;;;;;5005180;28;20104;-64
2022/04/05 02:04:40;;;;;;;3.28;0.63;;;0.60;99.90;;;;;;5005112;28;20137;-67
2022/04/05 02:07:10;;;;;;;1.98;0.50;;;0.70;99.90;;;;;;5005201;28;20059;-66
2022/04/05 02:09:37;;;;;;;;;;;0.70;99.90;;;;;;4999458;28;20046;-68
2022/04/05 02:12:05;;;;;;;3.47;0.60;;;0.60;99.90;;;;;;5021002;28;20430;-67
2022/04/05 02:14:54;;;;;;;4.00;0.70;;;0.50;99.90;;;;;;5003040;28;20764;-66
2022/04/05 02:17:36;;;;;;;2.70;0.60;;;0.50;99.90;;;;;;4991266;28;20050;-63
2022/04/05 02:20:06;;;;;;;4.17;1.20;;;0.40;99.90;;;;;;4989804;28;20173;-64
2022/04/05 02:22:36;;;;;;;;;;;0.50;99.90;;;;;;4998471;28;20314;-65
2022/04/05 02:25:11;;;;;;;4.95;0.40;;;0.50;99.90;;;;;;5003295;28;19933;-65
2022/04/05 02:27:41;;;;;;;2.05;1.02;;;0.30;99.90;;;;;;5001641;28;20049;-66
2022/04/05 02:30:12;;;;;;;4.55;0.85;;;0.30;99.90;;;;;;5002691;28;20451;-63
2022/04/05 02:32:41;;;;;;;2.15;0.75;;;0.30;99.90;;;;;;5003701;28;20054;-67
2022/04/05 02:35:11;;;;;;;4.72;0.77;;;0.30;99.90;;;;;;5003310;28;20369;-67
2022/04/05 02:37:39;;;;;;;6.10;0.80;;;0.30;99.90;;;;;;4994807;28;20670;-65
2022/04/05 02:40:09;;;;;;;3.00;1.27;;;0.30;99.90;;;;;;5004907;28;20045;-65
2022/04/05 02:42:38;;;;;;;4.85;0.88;;;0.30;99.90;;;;;;5001135;28;20476;-63
2022/04/05 02:45:08;;;;;;;3.60;0.73;;;0.20;99.90;;;;;;5016431;28;20046;-64
2022/04/05 02:47:35;;;;;;;7.75;1.52;;;0.30;99.90;;;;;;5000615;28;20054;-67
2022/04/05 02:50:05;;;;;;;3.13;1.02;;;0.30;99.90;;;;;;4996082;28;20248;-66
2022/04/05 02:52:33;;;;;;;3.87;1.47;;;0.20;99.90;;;;;;4987233;28;20069;-68
2022/04/05 02:55:04;;;;;;;2.90;0.80;;;0.30;99.90;;;;;;5004739;28;20796;-67
2022/04/05 02:57:36;;;;;;;3.17;1.00;;;0.20;99.90;;;;;;4998962;28;20758;-71
2022/04/05 03:00:07;;;;;;;4.45;1.40;;;0.10;99.90;;;;;;5004816;28;20108;-66
2022/04/05 03:02:35;;;;;;;4.70;2.35;;;0.10;99.90;;;;;;5003226;28;20060;-68
2022/04/05 03:05:05;;;;;;;2.33;0.80;;;0.20;99.90;;;;;;5003195;28;20042;-67
2022/04/05 03:07:37;;;;;;;5.60;1.48;;;0.20;99.90;;;;;;5002118;28;20104;-66
2022/04/05 03:10:07;;;;;;;2.30;1.48;;;0.20;99.90;;;;;;5002618;28;20790;-72
2022/04/05 03:12:37;;;;;;;3.67;0.65;;;0.20;99.90;;;;;;5009871;28;20456;-64
2022/04/05 03:15:07;;;;;;;7.13;1.67;;;0.20;99.90;;;;;;4999617;28;20137;-70
2022/04/05 03:17:40;;;;;;;3.80;1.10;;;0.20;99.90;;;;;;4996718;28;20764;-70
2022/04/05 03:20:12;;;;;;;1.33;0.60;;;0.20;99.90;;;;;;5013690;28;20493;-65
2022/04/05 03:22:44;;;;;;;2.65;0.60;;;0.30;99.90;;;;;;4995482;28;20139;-65
2022/04/05 03:25:11;;;;;;;2.30;0.82;;;0.20;99.90;;;;;;5004904;28;20058;-64
2022/04/05 03:27:41;;;;;;;4.10;1.02;;;0.20;99.90;;;;;;5003070;28;20156;-66
2022/04/05 03:30:12;;;;;;;3.97;1.00;;;0.20;99.90;;;;;;5002405;28;20062;-64
2022/04/05 03:32:40;;;;;;;4.28;1.00;;;0.20;99.90;;;;;;5010758;28;20399;-66
2022/04/05 03:35:08;;;;;;;3.53;1.00;;;0.30;99.90;;;;;;4986158;28;20046;-64
2022/04/05 03:37:36;;;;;;;1.17;0.65;;;0.20;99.90;;;;;;5000754;28;20057;-67
2022/04/05 03:40:05;;;;;;;3.75;1.15;;;0.30;99.90;;;;;;5002994;28;20049;-65
2022/04/05 03:42:33;;;;;;;6.32;2.13;;;0.20;99.90;;;;;;5002359;28;20050;-70
2022/04/05 03:45:00;;;;;;;2.60;1.25;;;0.20;99.90;;;;;;5002073;28;20158;-67
2022/04/05 03:47:28;;;;;;;4.80;1.88;;;0.10;99.90;;;;;;5001739;28;20191;-70
2022/04/05 03:49:56;;;;;;;3.95;1.58;;;0.20;99.90;;;;;;5000375;28;20516;-64
2022/04/05 03:52:23;;;;;;;4.78;0.73;;;0.20;99.90;;;;;;5002542;28;20050;-66
2022/04/05 03:54:51;;;;;;;5.88;0.95;;;0.20;99.90;;;;;;5002744;28;20168;-65
2022/04/05 03:57:21;;;;;;;2.95;1.15;;;0.30;99.90;;;;;;4991070;28;20127;-65
2022/04/05 03:59:52;;;;;;;2.55;0.93;;;0.30;99.90;;;;;;5001870;28;20054;-63
2022/04/05 04:02:20;;;;;;;2.78;1.33;;;0.30;99.90;;;;;;5002834;28;20575;-68
2022/04/05 04:04:52;;;;;;;2.17;0.70;;;0.40;99.90;;;;;;5002389;28;20058;-64
2022/04/05 04:07:19;;;;;;;2.03;0.68;;;0.40;99.90;;;;;;5002557;28;20061;-66
2022/04/05 04:09:47;;;;;;;6.05;0.85;;;0.40;99.90;;;;;;5000326;28;20054;-68
2022/04/05 04:12:14;;;;;;;3.67;1.00;;;0.50;99.90;;;;;;5004795;28;20159;-64
2022/04/05 04:14:42;;;;;;;1.67;0.80;;;0.50;99.90;;;;;;5002221;28;20070;-64
2022/04/05 04:17:17;;;;;;;3.97;0.90;;;0.40;99.90;;;;;;5004930;28;20050;-64
2022/04/05 04:19:44;;;;;;;2.70;0.77;;;0.40;99.90;;;;;;5003971;28;20060;-66
2022/04/05 04:22:12;;;;;;;2.45;0.57;;;0.40;99.90;;;;;;5005826;28;20564;-64
2022/04/05 04:24:40;;;;;;;4.13;1.45;;;0.50;99.90;;;;;;5005767;28;20057;-66
2022/04/05 04:27:07;;;;;;;2.10;0.98;;;0.50;99.90;;;;;;5010364;28;20411;-63
2022/04/05 04:29:34;;;;;;;2.17;1.15;;;0.40;99.90;;;;;;5003607;28;20090;-64
2022/04/05 04:32:01;;;;;;;2.05;0.98;;;0.40;99.90;;;;;;5006901;28;20152;-71
2022/04/05 04:34:28;;;;;;;1.33;0.90;;;0.50;99.90;;;;;;5000734;28;20074;-65
2022/04/05 04:36:56;;;;;;;3.40;0.63;;;0.50;99.90;;;;;;5007476;28;20104;-66
2022/04/05 04:39:23;;;;;;;2.28;0.82;;;0.50;99.90;;;;;;5010649;28;20046;-64
2022/04/05 04:41:50;;;;;;;4.72;0.82;;;0.50;99.90;;;;;;5000943;28;20056;-64
2022/04/05 04:44:17;;;;;;;0.55;0.40;;;0.50;99.90;;;;;;4996801;28;20140;-64
2022/04/05 04:46:45;;;;;;;2.03;1.10;;;0.50;99.90;;;;;;5004868;28;20096;-66
2022/04/05 04:49:12;;;;;;;4.28;1.10;;;0.50;99.90;;;;;;5006857;28;20472;-63
2022/04/05 04:51:39;;;;;;;1.85;0.60;;;0.50;99.90;;;;;;4995109;28;20050;-64
2022/04/05 04:54:05;;;;;;;1.35;0.80;;;0.50;99.90;;;;;;4999616;28;20124;-66
2022/04/05 04:56:32;;;;;;;2.35;0.98;;;0.50;99.90;;;;;;4990996;28;20050;-65
2022/04/05 04:58:59;;;;;;;4.70;0.70;;;0.50;99.90;;;;;;4992307;28;20156;-67
2022/04/05 05:01:26;;;;;;;6.78;1.08;;;0.40;99.90;;;;;;4991650;28;22293;-65
2022/04/05 05:03:53;;;;;;;3.47;0.88;;;0.50;99.90;;;;;;4994991;28;20084;-66
2022/04/05 05:06:20;;;;;;;3.08;1.02;;;0.50;99.90;;;;;;4997576;28;20046;-65
2022/04/05 05:08:47;;;;;;;2.42;0.90;;;0.50;99.90;;;;;;4993747;28;20116;-64
2022/04/05 05:11:14;;;;;;;3.80;0.70;;;0.50;99.90;;;;;;5003363;28;20077;-66
2022/04/05 05:13:41;;;;;;;3.00;0.77;;;0.50;99.90;;;;;;4997620;28;20065;-66
2022/04/05 05:16:08;;;;;;;3.47;0.93;;;0.50;99.90;;;;;;4998032;28;20042;-64
2022/04/05 05:18:36;;;;;;;2.70;0.70;;;0.50;99.90;;;;;;4999187;28;20054;-71
2022/04/05 05:21:03;;;;;;;8.75;1.88;;;0.50;99.90;;;;;;4996410;28;20058;-71
2022/04/05 05:23:30;;;;;;;1.67;0.88;;;0.60;99.90;;;;;;4999085;28;20108;-69
2022/04/05 05:25:57;;;;;;;3.45;0.80;;;0.50;99.90;;;;;;4997033;28;20146;-66
2022/04/05 05:28:24;;;;;;;2.78;0.88;;;0.50;99.90;;;;;;4994312;28;20074;-69
2022/04/05 05:30:51;;;;;;;2.97;0.85;;;0.60;99.90;;;;;;4999961;28;20138;-65
2022/04/05 05:33:18;;;;;;;2.55;0.82;;;0.50;99.90;;;;;;4996513;28;20053;-68
2022/04/05 05:35:46;;;;;;;9.25;2.58;;;0.50;99.90;;;;;;4994868;28;20461;-67
2022/04/05 05:38:13;;;;;;;5.10;0.43;;;0.50;99.90;;;;;;5002834;28;20140;-72
2022/04/05 05:40:40;;;;;;;2.80;0.30;;;0.50;99.90;;;;;;4999563;28;20058;-69
2022/04/05 05:43:06;;;;;;;3.35;0.90;;;0.50;99.90;;;;;;5005690;28;20582;-65
2022/04/05 05:45:35;;;;;;;3.97;1.40;;;0.50;99.90;;;;;;5001320;28;20077;-68
2022/04/05 05:48:04;;;;;;;3.20;0.43;;;0.60;99.90;;;;;;5003897;28;20432;-69
2022/04/05 05:50:31;;;;;;;5.20;0.93;;;0.60;99.90;;;;;;5004117;28;20076;-71
2022/04/05 05:52:59;;;;;;;5.75;0.80;;;0.50;99.90;;;;;;5000674;28;20430;-65
2022/04/05 05:55:26;;;;;;;1.95;0.68;;;0.50;99.90;;;;;;4996112;28;20046;-69
2022/04/05 05:57:53;;;;;;;5.45;1.00;;;0.50;99.90;;;;;;5004043;28;20139;-65
2022/04/05 06:00:22;;;;;;;6.88;1.20;;;0.50;99.90;;;;;;5000389;28;21893;-66
2022/04/05 06:02:54;;;;;;;1.27;0.40;;;0.50;99.90;;;;;;4998498;28;20084;-68
2022/04/05 06:05:22;;;;;;;3.00;0.80;;;0.50;99.90;;;;;;5001935;28;20782;-66
2022/04/05 06:07:49;;;;;;;2.38;0.68;;;0.60;99.90;;;;;;5001433;28;20061;-65
2022/04/05 06:10:16;;;;;;;5.78;0.82;;;0.60;99.90;;;;;;5004241;28;20120;-66
2022/04/05 06:12:45;;;;;;;14.55;0.98;;;0.60;99.90;;;;;;5006887;28;20041;-70
2022/04/05 06:15:14;;;;;;;2.92;1.27;;;0.50;99.90;;;;;;5002392;28;20638;-64
2022/04/05 06:17:46;;;;;;;4.13;1.00;;;0.40;99.90;;;;;;5001409;28;20037;-68
2022/04/05 06:20:16;;;;;;;0.85;0.65;;;0.40;99.90;;;;;;5003732;28;20104;-65
2022/04/05 06:22:51;;;;;;;2.17;0.57;;;0.40;99.90;;;;;;5002525;28;20054;-69
2022/04/05 06:25:37;;;;;;;8.00;2.22;;;0.40;99.90;;;;;;5004456;28;20077;-66
2022/04/05 06:28:07;;;;;;;2.55;0.82;;;0.40;99.90;;;;;;5002293;28;20072;-71
2022/04/05 06:30:35;;;;;;;4.63;0.98;;;0.40;99.90;;;;;;4991770;28;20473;-65
2022/04/05 06:33:18;;;;;;;2.22;0.52;;;0.40;99.90;;;;;;4989637;28;20069;-65
2022/04/05 06:35:49;;;;;;;5.50;1.30;;;0.40;99.90;;;;;;4998550;28;20046;-65
2022/04/05 06:38:16;;;;;;;2.05;0.70;;;0.30;99.90;;;;;;4995400;28;20161;-65
2022/04/05 06:40:43;;;;;;;0.77;0.32;;;0.30;99.90;;;;;;5003832;28;20128;-66
2022/04/05 06:43:12;;;;;;;0.85;0.63;;;0.30;99.90;;;;;;5003065;28;20103;-70
2022/04/05 06:45:39;;;;;;;2.75;1.20;;;0.30;99.90;;;;;;4996688;28;20038;-67
2022/04/05 06:48:09;;;;;;;0.70;0.47;;;0.40;99.90;;;;;;5003361;28;20115;-65
2022/04/05 06:50:36;;;;;;;4.78;0.65;;;0.40;99.90;;;;;;4998786;28;20077;-72
2022/04/05 06:53:04;;;;;;;1.55;0.65;;;0.40;99.90;;;;;;4996110;28;20161;-64
2022/04/05 06:55:31;;;;;;;2.05;0.77;;;0.30;99.90;;;;;;5003861;28;20150;-66
2022/04/05 06:57:58;;;;;;;2.60;0.70;;;0.30;99.90;;;;;;5002258;28;20133;-71
2022/04/05 07:00:26;;;;;;;5.72;0.70;;;0.30;99.90;;;;;;5002099;28;20115;-65
2022/04/05 07:02:55;;;;;;;2.65;0.73;;;0.30;99.90;;;;;;5004249;28;20049;-65
2022/04/05 07:05:23;;;;;;;1.20;0.75;;;0.40;99.90;;;;;;5002676;28;20076;-69
2022/04/05 07:07:50;;;;;;;1.98;1.13;;;0.40;99.90;;;;;;5003003;28;20074;-65
2022/04/05 07:10:19;;;;;;;0.80;0.32;;;0.40;99.90;;;;;;4997791;28;20046;-65
2022/04/05 07:12:47;;;;;;;1.77;0.45;;;0.40;99.90;;;;;;5003867;28;20050;-66
2022/04/05 07:15:14;;;;;;;4.32;0.80;;;0.40;99.90;;;;;;5002982;28;20137;-64
2022/04/05 07:17:41;;;;;;;3.13;1.00;;;0.50;99.90;;;;;;4998071;28;20124;-65
2022/04/05 07:20:28;;;;;;;0.50;0.40;;;0.50;99.90;;;;;;4995330;28;20447;-68
2022/04/05 07:22:55;;;;;;;1.13;0.50;;;0.40;99.90;;;;;;4999804;28;20054;-65
2022/04/05 07:25:22;;;;;;;2.22;0.70;;;0.40;99.90;;;;;;4998832;28;20088;-73
2022/04/05 07:27:51;;;;;;;1.10;0.43;;;0.40;99.90;;;;;;4999093;28;20157;-65
2022/04/05 07:30:19;;;;;;;2.97;0.73;;;0.40;99.90;;;;;;4996540;28;20045;-65
2022/04/05 07:32:47;;;;;;;2.70;1.08;;;0.50;99.90;;;;;;5000834;28;20458;-64
2022/04/05 07:35:15;;;;;;;7.70;1.13;;;0.60;99.90;;;;;;4993999;28;20135;-68
2022/04/05 07:37:42;;;;;;;5.07;1.10;;;0.60;99.90;;;;;;4998858;28;20050;-65
2022/04/05 07:40:10;;;;;;;3.75;0.75;;;0.60;99.90;;;;;;5003616;28;20104;-66
2022/04/05 07:42:43;;;;;;;2.03;0.63;;;0.60;99.90;;;;;;5001658;28;20157;-66
2022/04/05 07:45:12;;;;;;;2.10;1.00;;;0.50;99.90;;;;;;5012962;28;20247;-65
2022/04/05 07:47:39;;;;;;;3.95;1.25;;;0.50;99.90;;;;;;4999688;28;20145;-65
2022/04/05 07:50:08;;;;;;;3.17;0.88;;;0.60;99.90;;;;;;5002671;28;20053;-65
2022/04/05 07:52:35;;;;;;;3.38;0.90;;;0.70;99.90;;;;;;5000094;28;20160;-72
2022/04/05 07:55:03;;;;;;;6.07;1.25;;;0.70;99.90;;;;;;5000447;28;20087;-64
2022/04/05 07:57:30;;;;;;;1.38;0.93;;;0.70;99.90;;;;;;5001975;28;20084;-68
2022/04/05 07:59:58;;;;;;;0.77;0.32;;;0.60;99.90;;;;;;5001029;28;20129;-67
2022/04/05 08:02:25;;;;;;;3.40;0.70;;;0.50;99.90;;;;;;4992798;28;20070;-69
2022/04/05 08:04:57;;;;;;;1.48;0.40;;;0.60;99.90;;;;;;4996135;28;20060;-66
2022/04/05 08:07:24;;;;;;;2.42;0.45;;;0.60;99.90;;;;;;5001763;28;20140;-66
2022/04/05 08:09:50;;;;;;;1.55;0.47;;;0.70;99.90;;;;;;4990895;28;20050;-68
2022/04/05 08:12:17;;;;;;;2.30;0.82;;;0.80;99.90;;;;;;5003815;28;20110;-67
2022/04/05 08:14:44;;;;;;;2.78;0.30;;;0.90;99.90;;;;;;4997274;28;20701;-67
2022/04/05 08:17:11;;;;;;;2.55;0.40;;;0.80;99.90;;;;;;4997085;28;20446;-68
2022/04/05 08:19:38;;;;;;;0.93;0.30;;;0.70;99.90;;;;;;4999900;28;20422;-70
2022/04/05 08:22:06;;;;;;;6.13;0.90;;;0.60;99.90;;;;;;5002238;28;20054;-75
2022/04/05 08:24:33;;;;;;;10.35;1.25;;;0.50;99.90;;;;;;4999082;28;20056;-66
2022/04/05 08:27:00;;;;;;;0.68;0.30;;;0.50;99.90;;;;;;5002296;28;20149;-65
2022/04/05 08:29:27;;;;;;;1.98;0.28;;;0.50;99.90;;;;;;4999773;28;20089;-67
2022/04/05 08:31:54;;;;;;;0.65;0.43;;;0.60;99.90;;;;;;5003783;28;20037;-66
2022/04/05 08:34:21;;;;;;;3.67;0.40;;;0.60;99.90;;;;;;5008078;28;20050;-66
2022/04/05 08:36:48;;;;;;;1.83;1.27;;;0.60;99.90;;;;;;5000490;28;20660;-70
2022/04/05 08:39:15;;;;;;;1.00;0.28;;;0.60;99.90;;;;;;5002034;28;20461;-65
2022/04/05 08:41:43;;;;;;;0.35;0.30;;;0.70;99.90;;;;;;5000608;28;20651;-64
2022/04/05 08:44:12;;;;;;;0.68;0.40;;;0.60;99.90;;;;;;5003049;28;20077;-67
2022/04/05 08:46:40;;;;;;;1.48;0.70;;;0.60;99.90;;;;;;5001876;28;20100;-68
2022/04/05 08:49:07;;;;;;;3.05;0.40;;;0.70;99.90;;;;;;5002983;28;20092;-67
2022/04/05 08:51:34;;;;;;;0.30;0.30;;;0.70;99.90;;;;;;4999699;28;20212;-66
2022/04/05 08:54:02;;;;;;;1.30;0.60;;;0.70;99.90;;;;;;5002151;28;20050;-68
2022/04/05 08:56:30;;;;;;;1.20;0.50;;;0.70;99.90;;;;;;5005274;28;20119;-65
2022/04/05 08:58:57;;;;;;;1.33;0.45;;;0.70;99.90;;;;;;4993656;28;20384;-67
2022/04/05 09:01:29;;;;;;;1.60;0.43;;;0.80;99.90;;;;;;5006532;28;20097;-65
2022/04/05 09:03:57;;;;;;;0.82;0.43;;;0.90;99.90;;;;;;5002917;28;20076;-64
2022/04/05 09:06:29;;;;;;;2.05;0.57;;;0.90;99.90;;;;;;4990676;28;20154;-64
2022/04/05 09:09:13;;;;;;;1.13;0.35;;;0.80;99.90;;;;;;5004338;28;20133;-64
2022/04/05 09:11:49;;;;;;;2.83;0.65;;;0.80;99.90;;;;;;5000735;28;20388;-66
2022/04/05 09:14:24;;;;;;;1.48;1.02;;;0.80;99.90;;;;;;5002568;28;20550;-68
2022/04/05 09:17:05;;;;;;;2.05;0.30;;;0.90;99.90;;;;;;4994486;28;20050;-65
2022/04/05 09:19:45;;;;;;;0.70;0.50;;;0.90;99.90;;;;;;4999992;28;20136;-67
2022/04/05 09:22:12;;;;;;;5.82;0.63;;;0.90;99.90;;;;;;5000057;28;20060;-65
2022/04/05 10:27:37;;;;;;;3.45;0.38;;;1.50;99.90;;;;;;4985787;28;20439;-68
2022/04/05 10:30:27;;;;;;;3.00;0.45;;;1.70;99.90;;;;;;4988358;28;20077;-70
2022/04/05 10:33:16;;;;;;;4.55;0.45;;;1.60;99.90;;;;;;4988792;28;20088;-67
2022/04/05 10:35:52;;;;;;;8.82;2.50;;;1.70;99.90;;;;;;4984188;28;20419;-71
2022/04/05 10:38:19;;;;;;;2.78;0.60;;;1.70;99.90;;;;;;4988225;28;20082;-68
2022/04/05 10:41:14;;;;;;;3.45;0.50;;;1.90;99.90;;;;;;4991153;28;20499;-71
2022/04/05 10:43:42;;;;;;;4.15;1.58;;;1.80;99.90;;;;;;4989122;28;20534;-68
2022/04/05 10:46:10;;;;;;;1.25;0.30;;;1.80;99.90;;;;;;4990694;28;20038;-68
2022/04/05 10:48:54;;;;;;;1.38;0.40;;;1.80;99.90;;;;;;4989561;28;20042;-68
2022/04/05 10:51:31;;;;;;;2.90;0.60;;;1.70;99.90;;;;;;4988255;28;20140;-66
2022/04/05 10:54:18;;;;;;;4.78;0.65;;;1.70;99.90;;;;;;4990624;28;20369;-64
2022/04/05 10:57:26;;;;;;;4.35;0.45;;;1.70;99.90;;;;;;4990504;28;20058;-67
2022/04/05 10:59:58;;;;;;;3.17;0.60;;;1.90;99.90;;;;;;4987875;28;20061;-65
2022/04/05 11:02:53;;;;;;;3.10;0.20;;;1.90;99.90;;;;;;4982867;28;20676;-70
2022/04/05 11:05:24;;;;;;;1.85;0.50;;;1.90;99.90;;;;;;4975409;28;20189;-64
2022/04/05 11:07:51;;;;;;;7.53;0.60;;;1.90;99.90;;;;;;4986198;28;20061;-64
2022/04/05 11:10:45;;;;;;;6.07;0.80;;;1.90;99.90;;;;;;4985892;28;20137;-67
2022/04/05 11:13:13;;;;;;;3.42;0.40;;;1.80;99.90;;;;;;4982165;28;20054;-66
2022/04/05 11:15:47;;;;;;;4.47;0.52;;;1.80;99.90;;;;;;4984231;28;21027;-67
2022/04/05 11:18:19;;;;;;;1.90;0.17;;;2.00;99.90;;;;;;4984215;28;21275;-72
2022/04/05 11:20:48;;;;;;;2.63;0.52;;;2.10;99.90;;;;;;4984698;28;20149;-68
2022/04/05 11:23:19;;;;;;;1.58;0.60;;;2.30;99.90;;;;;;4982924;28;20054;-66
2022/04/05 11:25:47;;;;;;;0.47;0.28;;;2.20;99.90;;;;;;4982711;28;21742;-66
2022/04/05 11:28:15;;;;;;;2.03;0.70;;;1.90;99.90;;;;;;4972923;28;20050;-67
2022/04/05 11:30:55;;;;;;;7.20;0.50;;;2.00;99.90;;;;;;4972893;28;20197;-65
2022/04/05 11:33:31;;;;;;;5.75;0.30;;;2.20;99.90;;;;;;4966693;28;20124;-68
2022/04/05 11:36:02;;;;;;;5.72;1.60;;;2.20;99.90;;;;;;4973619;28;20334;-65
2022/04/05 11:38:34;;;;;;;2.38;0.30;;;2.30;99.90;;;;;;4971559;28;20059;-66
2022/04/05 11:41:08;;;;;;;5.32;0.63;;;2.30;99.90;;;;;;4962785;28;20137;-71
2022/04/05 11:43:43;;;;;;;1.55;0.85;;;2.40;99.90;;;;;;4968300;28;20566;-67
2022/04/05 11:46:16;;;;;;;5.80;0.77;;;2.30;99.90;;;;;;4973025;28;20046;-69
2022/04/05 11:48:50;;;;;;;0.75;0.50;;;2.40;99.90;;;;;;4972825;28;20069;-65
2022/04/05 11:51:25;;;;;;;3.10;0.30;;;2.40;99.90;;;;;;4971793;28;20217;-69
2022/04/05 11:54:05;;;;;;;5.70;0.70;;;2.50;99.90;;;;;;4997138;28;20101;-69
2022/04/05 11:56:34;;;;;;;3.13;0.40;;;2.60;99.90;;;;;;4969779;28;20054;-66
2022/04/05 11:59:02;;;;;;;0.50;0.20;;;2.70;99.90;;;;;;4971251;28;20058;-72
2022/04/05 12:01:32;;;;;;;5.20;0.43;;;2.60;99.90;;;;;;4969680;28;20258;-68
2022/04/05 12:04:11;;;;;;;2.00;0.17;;;2.60;99.90;;;;;;4971511;28;20050;-66
2022/04/05 12:06:53;;;;;;;4.07;0.50;;;2.50;99.90;;;;;;4970761;28;20248;-67
2022/04/05 12:09:22;;;;;;;2.22;0.50;;;2.50;99.90;;;;;;4969509;28;20129;-67
2022/04/05 12:11:51;;;;;;;5.82;0.85;;;2.40;99.90;;;;;;4970311;28;20071;-71
2022/04/05 12:14:24;;;;;;;4.57;1.08;;;2.50;99.90;;;;;;4969604;28;20054;-70
2022/04/05 12:16:55;;;;;;;2.97;0.98;;;2.70;99.90;;;;;;4970001;28;20046;-67
2022/04/05 12:19:28;;;;;;;2.08;0.45;;;2.80;99.90;;;;;;4967887;28;20129;-69
2022/04/05 12:22:02;;;;;;;1.10;0.38;;;2.70;99.90;;;;;;4970328;28;20072;-71
2022/04/05 12:24:31;;;;;;;4.95;0.80;;;2.80;99.90;;;;;;4969268;28;20050;-67
2022/04/05 12:26:59;;;;;;;0.52;0.20;;;2.70;99.90;;;;;;4970144;28;20046;-68
2022/04/05 12:29:28;;;;;;;7.07;0.82;;;2.70;99.90;;;;;;4966418;28;20078;-67
2022/04/05 12:32:03;;;;;;;6.82;1.48;;;2.90;99.90;;;;;;4970223;28;20176;-67
2022/04/05 12:34:30;;;;;;;4.45;0.50;;;2.90;99.90;;;;;;4970909;28;20057;-66
2022/04/05 12:36:59;;;;;;;0.55;0.30;;;2.90;99.90;;;;;;4970262;28;20070;-70
2022/04/05 12:39:40;;;;;;;3.72;0.73;;;3.00;99.90;;;;;;4967854;28;20492;-69
2022/04/05 12:42:09;;;;;;;4.03;0.80;;;2.90;99.90;;;;;;4969517;28;20066;-68
2022/04/05 12:44:38;;;;;;;5.18;1.52;;;2.90;99.90;;;;;;4969240;28;20130;-65
2022/04/05 12:47:16;;;;;;;2.57;0.90;;;2.90;99.90;;;;;;4967716;28;20054;-69
2022/04/05 12:49:51;;;;;;;100.18;51.92;;;3.00;99.90;;;;;;4969321;28;20078;-70
2022/04/05 12:52:24;;;;;;;6.57;3.08;;;3.20;99.90;;;;;;4971331;28;20201;-65
2022/04/05 12:54:57;;;;;;;6.88;3.35;;;3.20;99.90;;;;;;4970406;28;20053;-68
2022/04/05 12:57:32;;;;;;;2.58;0.60;;;3.10;99.90;;;;;;4969396;28;20167;-69
2022/04/05 13:00:10;;;;;;;4.50;1.33;;;3.00;99.90;;;;;;4971985;28;20066;-65
2022/04/05 13:03:01;;;;;;;0.40;0.25;;;2.90;99.90;;;;;;4970642;28;20050;-69
2022/04/05 13:08:28;;;;;;;3.72;1.15;;;3.10;99.90;;;;;;4971463;28;20105;-70
2022/04/05 13:10:55;;;;;;;1.67;0.13;;;3.10;99.90;;;;;;4972045;28;20069;-68
2022/04/05 13:13:42;;;;;;;1.10;0.88;;;3.00;99.90;;;;;;4968230;28;20188;-70
2022/04/05 13:16:11;;;;;;;5.10;0.73;;;3.10;99.90;;;;;;4970159;28;20058;-71
2022/04/05 13:18:46;;;;;;;3.10;0.38;;;3.20;99.90;;;;;;4963668;28;20150;-66
2022/04/05 13:21:15;;;;;;;2.45;0.20;;;3.20;99.90;;;;;;4966742;28;20050;-69
2022/04/05 13:23:57;;;;;;;2.25;0.35;;;3.10;99.90;;;;;;4969170;28;20176;-71
2022/04/05 13:26:27;;;;;;;8.90;0.65;;;3.20;99.90;;;;;;4967017;28;20070;-67
2022/04/05 13:29:09;;;;;;;7.80;1.13;;;3.50;99.90;;;;;;4967782;28;20097;-70
2022/04/05 13:31:45;;;;;;;0.50;0.47;;;3.60;99.90;;;;;;4966927;28;20105;-65
2022/04/05 13:34:13;;;;;;;6.20;0.38;;;3.50;99.90;;;;;;4960267;28;20043;-70
2022/04/05 13:36:41;;;;;;;9.90;1.08;;;3.50;99.90;;;;;;4962863;28;20046;-67
2022/04/05 13:39:09;;;;;;;0.68;0.40;;;3.60;99.90;;;;;;4969832;28;21256;-70
2022/04/05 13:41:37;;;;;;;3.75;0.50;;;3.70;99.90;;;;;;4967674;28;20292;-64
2022/04/05 13:44:05;;;;;;;2.10;0.40;;;3.80;99.90;;;;;;4970589;28;20168;-65
2022/04/05 13:46:35;;;;;;;3.08;1.13;;;3.70;99.90;;;;;;4969617;28;20050;-66
2022/04/05 13:49:09;;;;;;;2.05;0.50;;;3.60;99.90;;;;;;4968805;28;20054;-66
2022/04/05 13:51:37;;;;;;;4.28;0.43;;;3.60;99.90;;;;;;4968505;28;20050;-65
2022/04/05 13:54:25;;;;;;;4.72;0.55;;;3.60;99.90;;;;;;4968726;28;20248;-65
2022/04/05 13:56:52;;;;;;;1.52;0.70;;;3.60;99.90;;;;;;4969304;28;20047;-68
2022/04/05 13:59:20;;;;;;;1.42;0.30;;;3.90;99.90;;;;;;4969330;28;20112;-69
2022/04/05 14:01:47;;;;;;;3.50;0.63;;;4.00;99.90;;;;;;4969090;28;20527;-67
2022/04/05 14:04:14;;;;;;;3.20;0.88;;;4.00;99.90;;;;;;4970897;28;20149;-69
2022/04/05 14:06:41;;;;;;;0.88;0.45;;;4.00;99.90;;;;;;4971024;28;20081;-67
2022/04/05 14:09:08;;;;;;;1.38;0.73;;;4.10;99.90;;;;;;4970621;28;20058;-67
2022/04/05 14:11:35;;;;;;;3.35;0.52;;;4.20;99.90;;;;;;4969386;28;20141;-68
2022/04/05 14:14:03;;;;;;;1.08;0.40;;;4.20;99.90;;;;;;4970543;28;20221;-68
2022/04/05 14:16:30;;;;;;;2.53;0.82;;;4.00;99.90;;;;;;4968102;28;20054;-66
2022/04/05 14:18:57;;;;;;;4.03;0.70;;;3.90;99.90;;;;;;4970990;28;20073;-64